sensor_id;sensor_type;location;lat;lon;timestamp;temperature;humidity
36444;DHT22;24692;45.642;13.806;2023-04-15T00:01:24;9.60;99.90
36444;DHT22;24692;45.642;13.806;2023-04-15T00:03:52;9.60;99.90
36444;DHT22;24692;45.642;13.806;2023-04-15T00:06:19;9.60;99.90
36444;DHT22;24692;45.642;13.806;2023-04-15T00:08:45;9.60;99.90
36444;DHT22;24692;45.642;13.806;2023-04-15T00:11:11;9.60;99.90
36444;DHT22;24692;45.642;13.806;2023-04-15T00:13:37;9.60;99.90
36444;DHT22;24692;45.642;13.806;2023-04-15T00:16:05;9.60;99.90
36444;DHT22;24692;45.642;13.806;2023-04-15T00:18:31;9.50;99.90
36444;DHT22;24692;45.642;13.806;2023-04-15T00:20:57;9.50;99.90
36444;DHT22;24692;45.642;13.806;2023-04-15T00:23:23;9.50;99.90
36444;DHT22;24692;45.642;13.806;2023-04-15T00:25:49;9.50;99.90
36444;DHT22;24692;45.642;13.806;2023-04-15T00:28:15;9.60;99.90
36444;DHT22;24692;45.642;13.806;2023-04-15T00:30:42;9.50;99.90
36444;DHT22;24692;45.642;13.806;2023-04-15T00:33:07;9.40;99.90
36444;DHT22;24692;45.642;13.806;2023-04-15T00:35:33;9.50;99.90
36444;DHT22;24692;45.642;13.806;2023-04-15T00:38:00;9.50;99.90
36444;DHT22;24692;45.642;13.806;2023-04-15T00:40:25;9.50;99.90
36444;DHT22;24692;45.642;13.806;2023-04-15T00:42:52;9.50;99.90
36444;DHT22;24692;45.642;13.806;2023-04-15T00:45:18;9.50;99.90
36444;DHT22;24692;45.642;13.806;2023-04-15T00:47:45;9.50;99.90
36444;DHT22;24692;45.642;13.806;2023-04-15T00:50:11;9.50;99.90
36444;DHT22;24692;45.642;13.806;2023-04-15T00:52:38;9.60;99.90
36444;DHT22;24692;45.642;13.806;2023-04-15T00:55:04;9.50;99.90
36444;DHT22;24692;45.642;13.806;2023-04-15T00:57:30;9.60;99.90
36444;DHT22;24692;45.642;13.806;2023-04-15T00:59:57;9.60;99.90
36444;DHT22;24692;45.642;13.806;2023-04-15T01:02:24;9.60;99.90
36444;DHT22;24692;45.642;13.806;2023-04-15T01:04:50;9.60;99.90
36444;DHT22;24692;45.642;13.806;2023-04-15T01:07:16;9.60;99.90
36444;DHT22;24692;45.642;13.806;2023-04-15T01:09:42;9.60;99.90
36444;DHT22;24692;45.642;13.806;2023-04-15T01:12:11;9.60;99.90
36444;DHT22;24692;45.642;13.806;2023-04-15T01:14:38;9.50;99.90
36444;DHT22;24692;45.642;13.806;2023-04-15T01:17:04;9.50;99.90
36444;DHT22;24692;45.642;13.806;2023-04-15T01:19:30;9.50;99.90
36444;DHT22;24692;45.642;13.806;2023-04-15T01:21:56;9.50;99.90
36444;DHT22;24692;45.642;13.806;2023-04-15T01:24:22;9.50;99.90
36444;DHT22;24692;45.642;13.806;2023-04-15T01:26:49;9.60;99.90
36444;DHT22;24692;45.642;13.806;2023-04-15T01:29:15;9.50;99.90
36444;DHT22;24692;45.642;13.806;2023-04-15T01:31:51;9.50;99.90
36444;DHT22;24692;45.642;13.806;2023-04-15T01:34:17;9.50;99.90
36444;DHT22;24692;45.642;13.806;2023-04-15T01:36:43;9.40;99.90
36444;DHT22;24692;45.642;13.806;2023-04-15T01:39:08;9.40;99.90
36444;DHT22;24692;45.642;13.806;2023-04-15T01:41:34;9.30;99.90
36444;DHT22;24692;45.642;13.806;2023-04-15T01:44:00;9.30;99.90
36444;DHT22;24692;45.642;13.806;2023-04-15T01:46:26;9.30;99.90
36444;DHT22;24692;45.642;13.806;2023-04-15T01:48:52;9.20;99.90
36444;DHT22;24692;45.642;13.806;2023-04-15T01:51:17;9.20;99.90
36444;DHT22;24692;45.642;13.806;2023-04-15T01:53:43;9.20;99.90
36444;DHT22;24692;45.642;13.806;2023-04-15T01:56:09;9.10;99.90
36444;DHT22;24692;45.642;13.806;2023-04-15T01:58:34;9.10;99.90
36444;DHT22;24692;45.642;13.806;2023-04-15T02:01:00;9.10;99.90
36444;DHT22;24692;45.642;13.806;2023-04-15T02:03:27;9.00;99.90
36444;DHT22;24692;45.642;13.806;2023-04-15T02:05:54;8.90;99.90
36444;DHT22;24692;45.642;13.806;2023-04-15T02:08:19;9.00;99.90
36444;DHT22;24692;45.642;13.806;2023-04-15T02:10:45;8.90;99.90
36444;DHT22;24692;45.642;13.806;2023-04-15T02:13:11;8.90;99.90
36444;DHT22;24692;45.642;13.806;2023-04-15T02:15:36;9.00;99.90
36444;DHT22;24692;45.642;13.806;2023-04-15T02:18:02;9.00;99.90
36444;DHT22;24692;45.642;13.806;2023-04-15T02:20:28;9.00;99.90
36444;DHT22;24692;45.642;13.806;2023-04-15T02:22:55;9.00;99.90
36444;DHT22;24692;45.642;13.806;2023-04-15T02:25:21;9.00;99.90
36444;DHT22;24692;45.642;13.806;2023-04-15T02:27:47;9.00;99.90
36444;DHT22;24692;45.642;13.806;2023-04-15T02:30:13;9.00;99.90
36444;DHT22;24692;45.642;13.806;2023-04-15T02:32:39;9.10;99.90
36444;DHT22;24692;45.642;13.806;2023-04-15T02:35:06;9.00;99.90
36444;DHT22;24692;45.642;13.806;2023-04-15T02:37:34;9.00;99.90
36444;DHT22;24692;45.642;13.806;2023-04-15T02:40:06;9.10;99.90
36444;DHT22;24692;45.642;13.806;2023-04-15T02:42:32;9.10;99.90
36444;DHT22;24692;45.642;13.806;2023-04-15T02:44:57;9.10;99.90
36444;DHT22;24692;45.642;13.806;2023-04-15T02:47:23;9.10;99.90
36444;DHT22;24692;45.642;13.806;2023-04-15T02:49:49;9.10;99.90
36444;DHT22;24692;45.642;13.806;2023-04-15T02:52:14;9.10;99.90
36444;DHT22;24692;45.642;13.806;2023-04-15T02:54:40;9.10;99.90
36444;DHT22;24692;45.642;13.806;2023-04-15T02:57:06;9.10;99.90
36444;DHT22;24692;45.642;13.806;2023-04-15T02:59:31;9.10;99.90
36444;DHT22;24692;45.642;13.806;2023-04-15T03:01:57;9.10;99.90
36444;DHT22;24692;45.642;13.806;2023-04-15T03:04:26;9.10;99.90
36444;DHT22;24692;45.642;13.806;2023-04-15T03:06:54;9.20;99.90
36444;DHT22;24692;45.642;13.806;2023-04-15T03:09:21;9.10;99.90
36444;DHT22;24692;45.642;13.806;2023-04-15T03:11:46;9.20;99.90
36444;DHT22;24692;45.642;13.806;2023-04-15T03:14:12;9.10;99.90
36444;DHT22;24692;45.642;13.806;2023-04-15T03:16:38;9.10;99.90
36444;DHT22;24692;45.642;13.806;2023-04-15T03:19:03;9.00;99.90
36444;DHT22;24692;45.642;13.806;2023-04-15T03:21:29;9.10;99.90
36444;DHT22;24692;45.642;13.806;2023-04-15T03:23:55;9.10;99.90
36444;DHT22;24692;45.642;13.806;2023-04-15T03:26:29;9.20;99.90
36444;DHT22;24692;45.642;13.806;2023-04-15T03:28:55;9.20;99.90
36444;DHT22;24692;45.642;13.806;2023-04-15T03:31:21;9.20;99.90
36444;DHT22;24692;45.642;13.806;2023-04-15T03:33:47;9.20;99.90
36444;DHT22;24692;45.642;13.806;2023-04-15T03:36:12;9.30;99.90
36444;DHT22;24692;45.642;13.806;2023-04-15T03:38:38;9.30;99.90
36444;DHT22;24692;45.642;13.806;2023-04-15T03:41:04;9.20;99.90
36444;DHT22;24692;45.642;13.806;2023-04-15T03:43:30;9.20;99.90
36444;DHT22;24692;45.642;13.806;2023-04-15T03:45:55;9.20;99.90
36444;DHT22;24692;45.642;13.806;2023-04-15T03:48:21;9.20;99.90
36444;DHT22;24692;45.642;13.806;2023-04-15T03:50:47;9.30;99.90
36444;DHT22;24692;45.642;13.806;2023-04-15T03:53:12;9.20;99.90
36444;DHT22;24692;45.642;13.806;2023-04-15T03:55:38;9.20;99.90
36444;DHT22;24692;45.642;13.806;2023-04-15T03:58:04;9.20;99.90
36444;DHT22;24692;45.642;13.806;2023-04-15T04:00:30;9.20;99.90
36444;DHT22;24692;45.642;13.806;2023-04-15T04:02:55;9.20;99.90
36444;DHT22;24692;45.642;13.806;2023-04-15T04:05:21;9.10;99.90
36444;DHT22;24692;45.642;13.806;2023-04-15T04:07:47;9.10;99.90
36444;DHT22;24692;45.642;13.806;2023-04-15T04:10:12;9.10;99.90
36444;DHT22;24692;45.642;13.806;2023-04-15T04:12:38;9.10;99.90
36444;DHT22;24692;45.642;13.806;2023-04-15T04:15:04;9.20;99.90
36444;DHT22;24692;45.642;13.806;2023-04-15T04:17:31;9.20;99.90
36444;DHT22;24692;45.642;13.806;2023-04-15T04:19:56;9.10;99.90
36444;DHT22;24692;45.642;13.806;2023-04-15T04:22:22;9.10;99.90
36444;DHT22;24692;45.642;13.806;2023-04-15T04:24:48;9.10;99.90
36444;DHT22;24692;45.642;13.806;2023-04-15T04:27:14;9.10;99.90
36444;DHT22;24692;45.642;13.806;2023-04-15T04:29:40;9.10;99.90
36444;DHT22;24692;45.642;13.806;2023-04-15T04:32:06;9.20;99.90
36444;DHT22;24692;45.642;13.806;2023-04-15T04:34:31;9.20;99.90
36444;DHT22;24692;45.642;13.806;2023-04-15T04:36:57;9.10;99.90
36444;DHT22;24692;45.642;13.806;2023-04-15T04:39:22;9.20;99.90
36444;DHT22;24692;45.642;13.806;2023-04-15T04:41:49;9.20;99.90
36444;DHT22;24692;45.642;13.806;2023-04-15T04:44:16;9.30;99.90
36444;DHT22;24692;45.642;13.806;2023-04-15T04:46:42;9.20;99.90
36444;DHT22;24692;45.642;13.806;2023-04-15T04:49:08;9.30;99.90
36444;DHT22;24692;45.642;13.806;2023-04-15T04:51:33;9.30;99.90
36444;DHT22;24692;45.642;13.806;2023-04-15T04:53:59;9.30;99.90
36444;DHT22;24692;45.642;13.806;2023-04-15T04:56:25;9.30;99.90
36444;DHT22;24692;45.642;13.806;2023-04-15T04:58:51;9.30;99.90
36444;DHT22;24692;45.642;13.806;2023-04-15T05:01:17;9.30;99.90
36444;DHT22;24692;45.642;13.806;2023-04-15T05:03:43;9.40;99.90
36444;DHT22;24692;45.642;13.806;2023-04-15T05:06:09;9.50;99.90
36444;DHT22;24692;45.642;13.806;2023-04-15T05:08:35;9.60;99.90
36444;DHT22;24692;45.642;13.806;2023-04-15T05:11:01;9.70;99.90
36444;DHT22;24692;45.642;13.806;2023-04-15T05:13:27;9.70;99.90
36444;DHT22;24692;45.642;13.806;2023-04-15T05:15:52;9.80;99.90
36444;DHT22;24692;45.642;13.806;2023-04-15T05:18:18;9.80;99.90
36444;DHT22;24692;45.642;13.806;2023-04-15T05:20:43;9.90;99.90
36444;DHT22;24692;45.642;13.806;2023-04-15T05:23:09;9.90;99.90
36444;DHT22;24692;45.642;13.806;2023-04-15T05:25:35;10.00;99.90
36444;DHT22;24692;45.642;13.806;2023-04-15T05:28:01;10.10;99.90
36444;DHT22;24692;45.642;13.806;2023-04-15T05:30:26;10.10;99.90
36444;DHT22;24692;45.642;13.806;2023-04-15T05:32:52;10.20;99.90
36444;DHT22;24692;45.642;13.806;2023-04-15T05:35:18;10.40;99.90
36444;DHT22;24692;45.642;13.806;2023-04-15T05:37:44;10.40;99.90
36444;DHT22;24692;45.642;13.806;2023-04-15T05:40:10;10.50;99.90
36444;DHT22;24692;45.642;13.806;2023-04-15T05:42:36;10.50;99.90
36444;DHT22;24692;45.642;13.806;2023-04-15T05:45:02;10.70;99.90
36444;DHT22;24692;45.642;13.806;2023-04-15T05:47:30;10.70;99.90
36444;DHT22;24692;45.642;13.806;2023-04-15T05:49:56;10.80;99.90
36444;DHT22;24692;45.642;13.806;2023-04-15T05:52:23;10.90;99.90
36444;DHT22;24692;45.642;13.806;2023-04-15T05:54:49;11.00;99.90
36444;DHT22;24692;45.642;13.806;2023-04-15T05:57:15;11.10;99.90
36444;DHT22;24692;45.642;13.806;2023-04-15T05:59:41;11.30;99.90
36444;DHT22;24692;45.642;13.806;2023-04-15T06:02:08;11.30;99.90
36444;DHT22;24692;45.642;13.806;2023-04-15T06:04:34;11.50;99.90
36444;DHT22;24692;45.642;13.806;2023-04-15T06:06:59;11.60;99.90
36444;DHT22;24692;45.642;13.806;2023-04-15T06:09:25;11.70;99.90
36444;DHT22;24692;45.642;13.806;2023-04-15T06:11:51;11.70;99.90
36444;DHT22;24692;45.642;13.806;2023-04-15T06:14:17;11.80;99.90
36444;DHT22;24692;45.642;13.806;2023-04-15T06:16:43;11.90;99.90
36444;DHT22;24692;45.642;13.806;2023-04-15T06:19:08;11.90;99.90
36444;DHT22;24692;45.642;13.806;2023-04-15T06:21:34;12.10;99.90
36444;DHT22;24692;45.642;13.806;2023-04-15T06:24:00;12.20;99.90
36444;DHT22;24692;45.642;13.806;2023-04-15T06:26:26;12.20;99.90
36444;DHT22;24692;45.642;13.806;2023-04-15T06:28:52;12.30;99.90
36444;DHT22;24692;45.642;13.806;2023-04-15T06:31:18;12.40;99.90
36444;DHT22;24692;45.642;13.806;2023-04-15T06:33:44;12.50;99.90
36444;DHT22;24692;45.642;13.806;2023-04-15T06:36:09;12.50;99.90
36444;DHT22;24692;45.642;13.806;2023-04-15T06:38:35;12.50;99.90
36444;DHT22;24692;45.642;13.806;2023-04-15T06:41:02;12.60;99.90
36444;DHT22;24692;45.642;13.806;2023-04-15T06:43:28;12.70;99.90
36444;DHT22;24692;45.642;13.806;2023-04-15T06:45:54;12.80;99.90
36444;DHT22;24692;45.642;13.806;2023-04-15T06:48:19;12.90;99.90
36444;DHT22;24692;45.642;13.806;2023-04-15T06:50:45;13.00;99.90
36444;DHT22;24692;45.642;13.806;2023-04-15T06:53:10;13.10;99.90
36444;DHT22;24692;45.642;13.806;2023-04-15T06:55:36;13.20;99.90
36444;DHT22;24692;45.642;13.806;2023-04-15T06:58:02;13.20;99.90
36444;DHT22;24692;45.642;13.806;2023-04-15T07:00:28;13.20;99.90
36444;DHT22;24692;45.642;13.806;2023-04-15T07:02:55;13.10;99.90
36444;DHT22;24692;45.642;13.806;2023-04-15T07:05:21;13.00;99.90
36444;DHT22;24692;45.642;13.806;2023-04-15T07:07:47;12.90;99.90
36444;DHT22;24692;45.642;13.806;2023-04-15T07:10:12;12.90;99.90
36444;DHT22;24692;45.642;13.806;2023-04-15T07:12:40;13.00;99.90
36444;DHT22;24692;45.642;13.806;2023-04-15T07:15:06;13.20;99.90
36444;DHT22;24692;45.642;13.806;2023-04-15T07:17:31;13.50;99.90
36444;DHT22;24692;45.642;13.806;2023-04-15T07:19:57;13.70;99.90
36444;DHT22;24692;45.642;13.806;2023-04-15T07:22:23;13.70;99.90
36444;DHT22;24692;45.642;13.806;2023-04-15T07:24:49;13.80;99.90
36444;DHT22;24692;45.642;13.806;2023-04-15T07:27:15;13.70;99.90
36444;DHT22;24692;45.642;13.806;2023-04-15T07:29:41;13.70;99.90
36444;DHT22;24692;45.642;13.806;2023-04-15T07:32:08;13.80;99.90
36444;DHT22;24692;45.642;13.806;2023-04-15T07:34:35;13.90;99.90
36444;DHT22;24692;45.642;13.806;2023-04-15T07:37:00;14.00;99.90
36444;DHT22;24692;45.642;13.806;2023-04-15T07:39:26;14.10;99.90
36444;DHT22;24692;45.642;13.806;2023-04-15T07:41:52;14.00;99.90
36444;DHT22;24692;45.642;13.806;2023-04-15T07:44:17;14.10;99.90
36444;DHT22;24692;45.642;13.806;2023-04-15T07:46:43;14.30;99.90
36444;DHT22;24692;45.642;13.806;2023-04-15T07:49:09;14.40;99.90
36444;DHT22;24692;45.642;13.806;2023-04-15T07:51:34;14.50;99.90
36444;DHT22;24692;45.642;13.806;2023-04-15T07:54:00;14.70;99.90
36444;DHT22;24692;45.642;13.806;2023-04-15T07:56:26;14.70;99.90
36444;DHT22;24692;45.642;13.806;2023-04-15T07:58:52;14.90;99.90
36444;DHT22;24692;45.642;13.806;2023-04-15T08:01:17;15.10;99.90
36444;DHT22;24692;45.642;13.806;2023-04-15T08:03:43;14.90;99.90
36444;DHT22;24692;45.642;13.806;2023-04-15T08:06:09;14.90;99.90
36444;DHT22;24692;45.642;13.806;2023-04-15T08:08:34;15.10;99.90
36444;DHT22;24692;45.642;13.806;2023-04-15T08:11:00;15.10;99.90
36444;DHT22;24692;45.642;13.806;2023-04-15T08:13:26;15.20;99.90
36444;DHT22;24692;45.642;13.806;2023-04-15T08:16:21;15.20;99.90
36444;DHT22;24692;45.642;13.806;2023-04-15T08:18:49;15.30;99.90
36444;DHT22;24692;45.642;13.806;2023-04-15T08:21:15;15.20;99.90
36444;DHT22;24692;45.642;13.806;2023-04-15T08:23:42;15.30;99.90
36444;DHT22;24692;45.642;13.806;2023-04-15T08:26:08;15.30;99.90
36444;DHT22;24692;45.642;13.806;2023-04-15T08:28:34;15.40;99.90
36444;DHT22;24692;45.642;13.806;2023-04-15T08:31:00;15.10;99.90
36444;DHT22;24692;45.642;13.806;2023-04-15T08:33:26;15.10;99.90
36444;DHT22;24692;45.642;13.806;2023-04-15T08:35:53;15.00;99.90
36444;DHT22;24692;45.642;13.806;2023-04-15T08:38:19;15.00;99.90
36444;DHT22;24692;45.642;13.806;2023-04-15T08:40:44;14.90;99.90
36444;DHT22;24692;45.642;13.806;2023-04-15T08:43:22;14.70;99.90
36444;DHT22;24692;45.642;13.806;2023-04-15T08:45:53;14.90;99.90
36444;DHT22;24692;45.642;13.806;2023-04-15T08:48:20;15.10;99.90
36444;DHT22;24692;45.642;13.806;2023-04-15T08:50:47;15.10;99.90
36444;DHT22;24692;45.642;13.806;2023-04-15T08:53:14;14.90;99.90
36444;DHT22;24692;45.642;13.806;2023-04-15T08:55:44;15.10;99.90
36444;DHT22;24692;45.642;13.806;2023-04-15T08:58:13;15.20;99.90
36444;DHT22;24692;45.642;13.806;2023-04-15T09:00:40;15.40;99.90
36444;DHT22;24692;45.642;13.806;2023-04-15T09:03:06;15.70;99.90
36444;DHT22;24692;45.642;13.806;2023-04-15T09:05:33;15.90;99.90
36444;DHT22;24692;45.642;13.806;2023-04-15T09:07:59;16.30;99.90
36444;DHT22;24692;45.642;13.806;2023-04-15T09:10:25;16.30;99.90
36444;DHT22;24692;45.642;13.806;2023-04-15T09:12:51;15.70;99.90
36444;DHT22;24692;45.642;13.806;2023-04-15T09:15:17;15.30;99.90
36444;DHT22;24692;45.642;13.806;2023-04-15T09:17:44;15.50;99.90
36444;DHT22;24692;45.642;13.806;2023-04-15T09:20:11;15.90;99.90
36444;DHT22;24692;45.642;13.806;2023-04-15T09:22:38;16.40;99.90
36444;DHT22;24692;45.642;13.806;2023-04-15T09:25:25;16.90;99.90
36444;DHT22;24692;45.642;13.806;2023-04-15T09:27:59;17.10;99.90
36444;DHT22;24692;45.642;13.806;2023-04-15T09:30:27;16.70;99.90
36444;DHT22;24692;45.642;13.806;2023-04-15T09:32:55;16.70;99.90
36444;DHT22;24692;45.642;13.806;2023-04-15T09:35:23;17.10;99.90
36444;DHT22;24692;45.642;13.806;2023-04-15T09:37:49;17.40;99.90
36444;DHT22;24692;45.642;13.806;2023-04-15T09:40:34;18.20;99.90
36444;DHT22;24692;45.642;13.806;2023-04-15T09:43:00;18.80;99.90
36444;DHT22;24692;45.642;13.806;2023-04-15T09:45:27;19.30;99.90
36444;DHT22;24692;45.642;13.806;2023-04-15T09:47:53;20.40;99.90
36444;DHT22;24692;45.642;13.806;2023-04-15T09:50:19;20.80;99.90
36444;DHT22;24692;45.642;13.806;2023-04-15T09:52:46;20.50;99.90
36444;DHT22;24692;45.642;13.806;2023-04-15T09:55:12;20.60;99.90
36444;DHT22;24692;45.642;13.806;2023-04-15T09:57:39;20.70;99.90
36444;DHT22;24692;45.642;13.806;2023-04-15T10:00:09;20.60;99.90
36444;DHT22;24692;45.642;13.806;2023-04-15T10:02:36;20.10;99.90
36444;DHT22;24692;45.642;13.806;2023-04-15T10:05:02;19.60;99.90
36444;DHT22;24692;45.642;13.806;2023-04-15T10:07:28;18.70;99.90
36444;DHT22;24692;45.642;13.806;2023-04-15T10:09:55;18.10;99.90
36444;DHT22;24692;45.642;13.806;2023-04-15T10:12:21;17.70;99.90
36444;DHT22;24692;45.642;13.806;2023-04-15T10:14:57;17.70;99.90
36444;DHT22;24692;45.642;13.806;2023-04-15T10:17:26;17.60;99.90
36444;DHT22;24692;45.642;13.806;2023-04-15T10:20:00;17.60;99.90
36444;DHT22;24692;45.642;13.806;2023-04-15T10:22:27;17.60;99.90
36444;DHT22;24692;45.642;13.806;2023-04-15T10:24:54;17.50;99.90
36444;DHT22;24692;45.642;13.806;2023-04-15T10:27:20;17.50;99.90
36444;DHT22;24692;45.642;13.806;2023-04-15T10:29:50;17.40;99.90
36444;DHT22;24692;45.642;13.806;2023-04-15T10:32:19;17.30;99.90
36444;DHT22;24692;45.642;13.806;2023-04-15T10:34:47;17.20;99.90
36444;DHT22;24692;45.642;13.806;2023-04-15T10:37:20;17.10;99.90
36444;DHT22;24692;45.642;13.806;2023-04-15T10:39:46;16.80;99.90
36444;DHT22;24692;45.642;13.806;2023-04-15T10:42:17;16.50;99.90
36444;DHT22;24692;45.642;13.806;2023-04-15T10:44:51;16.10;99.90
36444;DHT22;24692;45.642;13.806;2023-04-15T10:47:21;15.80;99.90
36444;DHT22;24692;45.642;13.806;2023-04-15T10:49:56;15.20;99.90
36444;DHT22;24692;45.642;13.806;2023-04-15T10:52:27;15.30;99.90
36444;DHT22;24692;45.642;13.806;2023-04-15T10:57:34;15.60;99.90
36444;DHT22;24692;45.642;13.806;2023-04-15T11:00:10;16.40;99.90
36444;DHT22;24692;45.642;13.806;2023-04-15T11:02:42;17.20;99.90
36444;DHT22;24692;45.642;13.806;2023-04-15T11:05:10;17.10;99.90
36444;DHT22;24692;45.642;13.806;2023-04-15T11:10:05;17.20;99.90
36444;DHT22;24692;45.642;13.806;2023-04-15T11:12:55;16.80;99.90
36444;DHT22;24692;45.642;13.806;2023-04-15T11:15:36;16.40;99.90
36444;DHT22;24692;45.642;13.806;2023-04-15T11:18:13;16.60;99.90
36444;DHT22;24692;45.642;13.806;2023-04-15T11:20:40;16.20;99.90
36444;DHT22;24692;45.642;13.806;2023-04-15T11:23:07;15.80;99.90
36444;DHT22;24692;45.642;13.806;2023-04-15T11:25:34;15.80;99.90
36444;DHT22;24692;45.642;13.806;2023-04-15T11:28:02;15.80;99.90
36444;DHT22;24692;45.642;13.806;2023-04-15T11:30:30;15.70;99.90
36444;DHT22;24692;45.642;13.806;2023-04-15T11:33:07;15.30;99.90
36444;DHT22;24692;45.642;13.806;2023-04-15T11:35:34;15.00;99.90
36444;DHT22;24692;45.642;13.806;2023-04-15T11:38:04;14.90;99.90
36444;DHT22;24692;45.642;13.806;2023-04-15T11:40:33;15.00;99.90
36444;DHT22;24692;45.642;13.806;2023-04-15T11:43:19;15.00;99.90
36444;DHT22;24692;45.642;13.806;2023-04-15T11:45:59;14.80;99.90
36444;DHT22;24692;45.642;13.806;2023-04-15T11:50:54;14.50;99.90
36444;DHT22;24692;45.642;13.806;2023-04-15T11:53:21;14.30;99.90
36444;DHT22;24692;45.642;13.806;2023-04-15T11:55:49;14.20;99.90
36444;DHT22;24692;45.642;13.806;2023-04-15T11:58:23;14.00;99.90
36444;DHT22;24692;45.642;13.806;2023-04-15T12:00:54;14.00;99.90
36444;DHT22;24692;45.642;13.806;2023-04-15T12:06:30;14.20;99.90
36444;DHT22;24692;45.642;13.806;2023-04-15T12:09:11;14.20;99.90
36444;DHT22;24692;45.642;13.806;2023-04-15T12:16:48;14.20;99.90
36444;DHT22;24692;45.642;13.806;2023-04-15T12:19:17;14.10;99.90
36444;DHT22;24692;45.642;13.806;2023-04-15T12:21:45;13.90;99.90
36444;DHT22;24692;45.642;13.806;2023-04-15T12:24:11;14.00;99.90
36444;DHT22;24692;45.642;13.806;2023-04-15T12:29:09;14.10;99.90
36444;DHT22;24692;45.642;13.806;2023-04-15T12:31:35;14.20;99.90
36444;DHT22;24692;45.642;13.806;2023-04-15T12:34:02;14.30;99.90
36444;DHT22;24692;45.642;13.806;2023-04-15T12:36:29;14.40;99.90
36444;DHT22;24692;45.642;13.806;2023-04-15T12:39:03;14.40;99.90
36444;DHT22;24692;45.642;13.806;2023-04-15T12:41:30;14.90;99.90
36444;DHT22;24692;45.642;13.806;2023-04-15T12:43:56;15.40;99.90
36444;DHT22;24692;45.642;13.806;2023-04-15T12:46:22;15.30;99.90
36444;DHT22;24692;45.642;13.806;2023-04-15T12:48:48;15.40;99.90
36444;DHT22;24692;45.642;13.806;2023-04-15T12:51:14;15.60;99.90
36444;DHT22;24692;45.642;13.806;2023-04-15T12:53:39;16.30;99.90
36444;DHT22;24692;45.642;13.806;2023-04-15T12:56:05;16.20;99.90
36444;DHT22;24692;45.642;13.806;2023-04-15T12:58:31;16.50;99.90
36444;DHT22;24692;45.642;13.806;2023-04-15T13:00:57;16.90;99.90
36444;DHT22;24692;45.642;13.806;2023-04-15T13:03:23;16.30;99.90
36444;DHT22;24692;45.642;13.806;2023-04-15T13:05:49;16.20;99.90
36444;DHT22;24692;45.642;13.806;2023-04-15T13:08:14;16.10;99.90
36444;DHT22;24692;45.642;13.806;2023-04-15T13:10:40;15.90;99.90
36444;DHT22;24692;45.642;13.806;2023-04-15T13:13:07;15.70;99.90
36444;DHT22;24692;45.642;13.806;2023-04-15T13:15:33;15.70;99.90
36444;DHT22;24692;45.642;13.806;2023-04-15T13:17:58;15.80;99.90
36444;DHT22;24692;45.642;13.806;2023-04-15T13:20:24;15.90;99.90
36444;DHT22;24692;45.642;13.806;2023-04-15T13:22:51;16.70;99.90
36444;DHT22;24692;45.642;13.806;2023-04-15T13:25:17;17.50;99.90
36444;DHT22;24692;45.642;13.806;2023-04-15T13:27:43;17.30;99.90
36444;DHT22;24692;45.642;13.806;2023-04-15T13:30:09;16.80;99.90
36444;DHT22;24692;45.642;13.806;2023-04-15T13:32:34;16.00;99.90
36444;DHT22;24692;45.642;13.806;2023-04-15T13:35:00;15.70;99.90
36444;DHT22;24692;45.642;13.806;2023-04-15T13:37:27;15.40;99.90
36444;DHT22;24692;45.642;13.806;2023-04-15T13:39:53;15.40;99.90
36444;DHT22;24692;45.642;13.806;2023-04-15T13:42:18;15.30;99.90
36444;DHT22;24692;45.642;13.806;2023-04-15T13:44:44;15.40;99.90
36444;DHT22;24692;45.642;13.806;2023-04-15T13:47:10;15.70;99.90
36444;DHT22;24692;45.642;13.806;2023-04-15T13:49:37;15.80;99.90
36444;DHT22;24692;45.642;13.806;2023-04-15T13:52:03;15.40;99.90
36444;DHT22;24692;45.642;13.806;2023-04-15T13:54:28;15.10;99.90
36444;DHT22;24692;45.642;13.806;2023-04-15T13:56:54;14.90;99.90
36444;DHT22;24692;45.642;13.806;2023-04-15T13:59:21;15.00;99.90
36444;DHT22;24692;45.642;13.806;2023-04-15T14:01:47;15.00;99.90
36444;DHT22;24692;45.642;13.806;2023-04-15T14:04:13;15.20;99.90
36444;DHT22;24692;45.642;13.806;2023-04-15T14:06:38;15.30;99.90
36444;DHT22;24692;45.642;13.806;2023-04-15T14:09:04;15.60;99.90
36444;DHT22;24692;45.642;13.806;2023-04-15T14:11:30;15.80;99.90
36444;DHT22;24692;45.642;13.806;2023-04-15T14:13:55;15.80;99.90
36444;DHT22;24692;45.642;13.806;2023-04-15T14:16:21;15.80;99.90
36444;DHT22;24692;45.642;13.806;2023-04-15T14:18:47;15.60;99.90
36444;DHT22;24692;45.642;13.806;2023-04-15T14:21:12;15.30;99.90
36444;DHT22;24692;45.642;13.806;2023-04-15T14:23:38;15.20;99.90
36444;DHT22;24692;45.642;13.806;2023-04-15T14:26:04;15.00;99.90
36444;DHT22;24692;45.642;13.806;2023-04-15T14:28:30;14.80;99.90
36444;DHT22;24692;45.642;13.806;2023-04-15T14:30:56;14.60;99.90
36444;DHT22;24692;45.642;13.806;2023-04-15T14:33:22;14.20;99.90
36444;DHT22;24692;45.642;13.806;2023-04-15T14:35:48;13.90;99.90
36444;DHT22;24692;45.642;13.806;2023-04-15T14:38:14;13.70;99.90
36444;DHT22;24692;45.642;13.806;2023-04-15T14:40:40;13.60;99.90
36444;DHT22;24692;45.642;13.806;2023-04-15T14:43:06;13.30;99.90
36444;DHT22;24692;45.642;13.806;2023-04-15T14:45:31;13.10;99.90
36444;DHT22;24692;45.642;13.806;2023-04-15T14:47:58;12.90;99.90
36444;DHT22;24692;45.642;13.806;2023-04-15T14:50:24;12.90;99.90
36444;DHT22;24692;45.642;13.806;2023-04-15T14:52:49;13.10;99.90
36444;DHT22;24692;45.642;13.806;2023-04-15T14:55:15;13.30;99.90
36444;DHT22;24692;45.642;13.806;2023-04-15T14:57:41;13.20;99.90
36444;DHT22;24692;45.642;13.806;2023-04-15T15:00:08;13.10;99.90
36444;DHT22;24692;45.642;13.806;2023-04-15T15:02:35;12.80;99.90
36444;DHT22;24692;45.642;13.806;2023-04-15T15:05:01;12.90;99.90
36444;DHT22;24692;45.642;13.806;2023-04-15T15:07:27;12.80;99.90
36444;DHT22;24692;45.642;13.806;2023-04-15T15:09:54;12.80;99.90
36444;DHT22;24692;45.642;13.806;2023-04-15T15:12:19;12.80;99.90
36444;DHT22;24692;45.642;13.806;2023-04-15T15:14:47;12.70;99.90
36444;DHT22;24692;45.642;13.806;2023-04-15T15:17:13;12.50;99.90
36444;DHT22;24692;45.642;13.806;2023-04-15T15:19:39;12.50;99.90
36444;DHT22;24692;45.642;13.806;2023-04-15T15:22:05;12.30;99.90
36444;DHT22;24692;45.642;13.806;2023-04-15T15:24:31;12.10;99.90
36444;DHT22;24692;45.642;13.806;2023-04-15T15:26:56;12.00;99.90
36444;DHT22;24692;45.642;13.806;2023-04-15T15:29:22;11.80;99.90
36444;DHT22;24692;45.642;13.806;2023-04-15T15:31:48;11.80;99.90
36444;DHT22;24692;45.642;13.806;2023-04-15T15:34:15;11.70;99.90
36444;DHT22;24692;45.642;13.806;2023-04-15T15:36:41;11.60;99.90